createdAt,value
2018-09-25T00:00:48.540Z,0.00
2018-09-25T00:01:48.466Z,0.00
2018-09-25T00:02:48.385Z,0.00
2018-09-25T00:03:48.306Z,0.00
2018-09-25T00:04:48.227Z,0.00
2018-09-25T00:05:48.161Z,0.00
2018-09-25T00:06:48.077Z,0.00
2018-09-25T00:07:47.994Z,0.00
2018-09-25T00:08:47.914Z,0.00
2018-09-25T00:09:47.836Z,0.00
2018-09-25T00:10:47.760Z,0.00
2018-09-25T00:11:47.681Z,0.00
2018-09-25T00:12:47.604Z,0.00
2018-09-25T00:13:47.526Z,0.00
2018-09-25T00:14:47.451Z,0.00
2018-09-25T00:15:47.367Z,0.00
2018-09-25T00:16:47.290Z,0.00
2018-09-25T00:17:47.214Z,0.00
2018-09-25T00:18:47.134Z,0.00
2018-09-25T00:19:47.057Z,0.00
2018-09-25T00:20:46.981Z,0.00
2018-09-25T00:21:46.899Z,0.00
2018-09-25T00:22:46.822Z,0.00
2018-09-25T00:23:46.745Z,0.00
2018-09-25T00:24:46.663Z,0.00
2018-09-25T00:25:46.585Z,0.00
2018-09-25T00:26:46.509Z,0.00
2018-09-25T00:27:46.431Z,0.00
2018-09-25T00:28:46.351Z,0.00
2018-09-25T00:29:46.277Z,0.00
2018-09-25T00:30:46.195Z,0.00
2018-09-25T00:31:46.127Z,0.00
2018-09-25T00:32:46.044Z,0.00
2018-09-25T00:33:45.956Z,0.00
2018-09-25T00:34:45.881Z,0.00
2018-09-25T00:35:45.801Z,0.00
2018-09-25T00:36:45.724Z,0.00
2018-09-25T00:37:45.653Z,0.00
2018-09-25T00:38:45.572Z,0.00
2018-09-25T00:39:45.487Z,0.00
2018-09-25T00:40:45.409Z,0.00
2018-09-25T00:41:45.338Z,0.00
2018-09-25T00:42:45.253Z,0.00
2018-09-25T00:43:45.173Z,0.00
2018-09-25T00:44:45.100Z,0.00
2018-09-25T00:45:45.014Z,0.00
2018-09-25T00:46:44.939Z,0.00
2018-09-25T00:47:44.862Z,0.00
2018-09-25T00:48:44.779Z,0.00
2018-09-25T00:49:44.706Z,0.00
2018-09-25T00:50:44.626Z,0.00
2018-09-25T00:51:44.544Z,0.00
2018-09-25T00:52:44.469Z,0.00
2018-09-25T00:53:44.390Z,0.00
2018-09-25T00:54:44.310Z,0.00
2018-09-25T00:55:44.230Z,0.00
2018-09-25T00:56:44.153Z,0.00
2018-09-25T00:57:44.073Z,0.00
2018-09-25T00:58:43.996Z,0.00
2018-09-25T00:59:43.918Z,0.00
2018-09-25T01:00:43.837Z,0.00
2018-09-25T01:01:43.761Z,0.00
2018-09-25T01:02:43.682Z,0.00
2018-09-25T01:03:43.601Z,0.00
2018-09-25T01:04:43.527Z,0.00
2018-09-25T01:05:43.446Z,0.00
2018-09-25T01:06:43.364Z,0.00
2018-09-25T01:07:43.288Z,0.00
2018-09-25T01:08:43.210Z,0.00
2018-09-25T01:09:43.126Z,0.00
2018-09-25T01:10:43.051Z,0.00
2018-09-25T01:11:42.972Z,0.00
2018-09-25T01:12:42.894Z,0.00
2018-09-25T01:13:42.814Z,0.00
2018-09-25T01:14:42.735Z,0.00
2018-09-25T01:15:42.652Z,0.00
2018-09-25T01:16:42.577Z,0.00
2018-09-25T01:17:42.501Z,0.00
2018-09-25T01:18:42.420Z,0.00
2018-09-25T01:19:42.339Z,0.00
2018-09-25T01:20:42.266Z,0.00
2018-09-25T01:21:42.183Z,0.00
2018-09-25T01:22:42.105Z,0.00
2018-09-25T01:23:42.027Z,0.00
2018-09-25T01:24:41.944Z,0.00
2018-09-25T01:25:41.867Z,0.00
2018-09-25T01:26:41.792Z,0.00
2018-09-25T01:27:41.710Z,0.00
2018-09-25T01:28:41.633Z,0.00
2018-09-25T01:29:41.557Z,0.00
2018-09-25T01:30:41.473Z,0.00
2018-09-25T01:31:41.393Z,0.00
2018-09-25T01:32:41.318Z,0.00
2018-09-25T01:33:41.235Z,0.00
2018-09-25T01:34:41.159Z,0.00
2018-09-25T01:35:41.087Z,0.00
2018-09-25T01:36:41.001Z,0.00
2018-09-25T01:37:40.922Z,0.00
2018-09-25T01:38:40.844Z,0.00
2018-09-25T01:39:40.762Z,0.00
2018-09-25T01:40:40.689Z,0.00
2018-09-25T01:41:40.607Z,0.00
2018-09-25T01:42:40.525Z,0.00
2018-09-25T01:43:40.449Z,0.00
2018-09-25T01:44:40.371Z,0.00
2018-09-25T01:45:40.284Z,0.00
2018-09-25T01:46:40.212Z,0.00
2018-09-25T01:47:40.132Z,0.00
2018-09-25T01:48:40.055Z,0.00
2018-09-25T01:49:39.975Z,0.00
2018-09-25T01:50:39.900Z,0.00
2018-09-25T01:51:39.815Z,0.00
2018-09-25T01:52:39.738Z,0.00
2018-09-25T01:53:39.660Z,0.00
2018-09-25T01:54:39.581Z,0.00
2018-09-25T01:55:39.507Z,0.00
2018-09-25T01:56:39.427Z,0.00
2018-09-25T01:57:39.342Z,0.00
2018-09-25T01:58:39.264Z,0.00
2018-09-25T01:59:39.184Z,0.00
2018-09-25T02:00:39.107Z,0.00
2018-09-25T02:01:39.024Z,0.00
2018-09-25T02:02:38.949Z,0.00
2018-09-25T02:03:38.872Z,0.00
2018-09-25T02:04:38.789Z,0.00
2018-09-25T02:05:38.754Z,0.00
2018-09-25T02:06:38.634Z,0.00
2018-09-25T02:07:38.550Z,0.00
2018-09-25T02:08:38.481Z,0.00
2018-09-25T02:09:38.397Z,0.00
2018-09-25T02:10:38.316Z,0.00
2018-09-25T02:11:38.237Z,0.00
2018-09-25T02:12:38.159Z,0.00
2018-09-25T02:13:38.077Z,0.00
2018-09-25T02:14:38.000Z,0.00
2018-09-25T02:15:37.920Z,0.00
2018-09-25T02:16:37.840Z,0.00
2018-09-25T02:17:37.763Z,0.00
2018-09-25T02:18:37.683Z,0.00
2018-09-25T02:19:37.602Z,0.00
2018-09-25T02:20:37.527Z,0.00
2018-09-25T02:21:37.448Z,0.00
2018-09-25T02:22:37.367Z,0.00
2018-09-25T02:23:37.292Z,0.00
2018-09-25T02:24:37.208Z,0.00
2018-09-25T02:25:37.129Z,0.00
2018-09-25T02:26:37.051Z,0.00
2018-09-25T02:27:36.972Z,0.00
2018-09-25T02:28:36.889Z,0.00
2018-09-25T02:29:36.819Z,0.00
2018-09-25T02:30:36.735Z,0.00
2018-09-25T02:31:36.653Z,0.00
2018-09-25T02:32:36.578Z,0.00
2018-09-25T02:33:36.497Z,0.00
2018-09-25T02:34:36.416Z,0.00
2018-09-25T02:35:36.338Z,0.00
2018-09-25T02:36:36.265Z,0.00
2018-09-25T02:37:36.179Z,0.00
2018-09-25T02:38:36.105Z,0.00
2018-09-25T02:39:36.023Z,0.00
2018-09-25T02:40:35.941Z,0.00
2018-09-25T02:41:35.862Z,0.00
2018-09-25T02:42:35.792Z,0.00
2018-09-25T02:43:35.723Z,0.00
2018-09-25T02:44:35.625Z,0.00
2018-09-25T02:45:35.552Z,0.00
2018-09-25T02:46:35.468Z,0.00
2018-09-25T02:47:35.385Z,0.00
2018-09-25T02:48:35.310Z,0.00
2018-09-25T02:49:35.230Z,0.00
2018-09-25T02:50:35.151Z,0.00
2018-09-25T02:51:35.072Z,0.00
2018-09-25T02:52:35.009Z,0.00
2018-09-25T02:53:34.912Z,0.00
2018-09-25T02:54:34.834Z,0.00
2018-09-25T02:55:34.756Z,0.00
2018-09-25T02:56:34.673Z,0.00
2018-09-25T02:57:34.591Z,0.00
2018-09-25T02:58:34.534Z,0.00
2018-09-25T02:59:34.432Z,0.00
2018-09-25T03:00:34.361Z,0.00
2018-09-25T03:01:34.281Z,0.00
2018-09-25T03:02:34.199Z,0.00
2018-09-25T03:03:34.119Z,0.00
2018-09-25T03:04:34.039Z,0.00
2018-09-25T03:05:33.963Z,0.00
2018-09-25T03:06:33.881Z,0.00
2018-09-25T03:07:33.801Z,0.00
2018-09-25T03:08:33.722Z,0.00
2018-09-25T03:09:33.642Z,0.00
2018-09-25T03:10:33.573Z,0.00
2018-09-25T03:11:33.480Z,0.00
2018-09-25T03:12:33.403Z,0.00
2018-09-25T03:13:33.320Z,0.00
2018-09-25T03:14:33.246Z,0.00
2018-09-25T03:15:33.167Z,0.00
2018-09-25T03:16:33.087Z,0.00
2018-09-25T03:17:33.002Z,0.00
2018-09-25T03:18:32.926Z,0.00
2018-09-25T03:19:32.847Z,0.00
2018-09-25T03:20:32.770Z,0.00
2018-09-25T03:21:32.709Z,0.00
2018-09-25T03:22:32.608Z,0.00
2018-09-25T03:23:32.535Z,0.00
2018-09-25T03:24:32.450Z,0.00
2018-09-25T03:25:32.375Z,0.00
2018-09-25T03:26:32.293Z,0.00
2018-09-25T03:27:32.212Z,0.00
2018-09-25T03:28:32.131Z,0.00
2018-09-25T03:29:32.051Z,0.00
2018-09-25T03:30:31.974Z,0.00
2018-09-25T03:31:31.892Z,0.00
2018-09-25T03:32:31.814Z,0.00
2018-09-25T03:33:31.732Z,0.00
2018-09-25T03:34:31.653Z,0.00
2018-09-25T03:35:31.581Z,0.00
2018-09-25T03:36:31.492Z,0.00
2018-09-25T03:37:31.414Z,0.00
2018-09-25T03:38:31.340Z,0.00
2018-09-25T03:39:31.252Z,0.00
2018-09-25T03:40:31.175Z,0.00
2018-09-25T03:41:31.095Z,0.00
2018-09-25T03:42:31.014Z,0.00
2018-09-25T03:43:30.933Z,0.00
2018-09-25T03:44:30.855Z,0.00
2018-09-25T03:45:30.781Z,0.00
2018-09-25T03:46:30.706Z,0.00
2018-09-25T03:47:30.616Z,0.00
2018-09-25T03:48:30.530Z,0.00
2018-09-25T03:49:30.456Z,0.00
2018-09-25T03:50:30.377Z,0.00
2018-09-25T03:51:30.296Z,0.00
2018-09-25T03:52:30.218Z,0.00
2018-09-25T03:53:30.137Z,0.00
2018-09-25T03:54:30.057Z,0.00
2018-09-25T03:55:29.976Z,0.00
2018-09-25T03:56:29.897Z,0.00
2018-09-25T03:57:29.821Z,0.00
2018-09-25T03:58:29.738Z,0.00
2018-09-25T03:59:29.686Z,0.00
2018-09-25T04:00:29.578Z,0.00
2018-09-25T04:01:29.498Z,0.00
2018-09-25T04:02:29.418Z,0.00
2018-09-25T04:03:29.342Z,0.00
2018-09-25T04:04:29.259Z,0.00
2018-09-25T04:05:29.184Z,0.00
2018-09-25T04:06:29.102Z,0.00
2018-09-25T04:07:29.017Z,0.00
2018-09-25T04:08:28.939Z,0.00
2018-09-25T04:09:28.858Z,0.00
2018-09-25T04:10:28.776Z,0.00
2018-09-25T04:11:28.698Z,0.00
2018-09-25T04:12:28.614Z,0.00
2018-09-25T04:13:28.539Z,0.00
2018-09-25T04:14:28.461Z,0.00
2018-09-25T04:15:28.381Z,0.00
2018-09-25T04:16:28.299Z,0.00
2018-09-25T04:17:28.217Z,0.00
2018-09-25T04:18:28.141Z,0.00
2018-09-25T04:19:28.060Z,0.00
2018-09-25T04:20:27.977Z,0.00
2018-09-25T04:21:27.896Z,0.00
2018-09-25T04:22:27.819Z,0.00
2018-09-25T04:23:27.739Z,0.00
2018-09-25T04:24:27.661Z,0.00
2018-09-25T04:25:27.580Z,0.00
2018-09-25T04:26:27.496Z,0.00
2018-09-25T04:27:27.416Z,0.00
2018-09-25T04:28:27.429Z,0.00
2018-09-25T04:29:27.265Z,0.00
2018-09-25T04:30:27.177Z,0.00
2018-09-25T04:31:27.097Z,0.00
2018-09-25T04:32:27.017Z,0.00
2018-09-25T04:33:26.938Z,0.00
2018-09-25T04:34:26.866Z,0.00
2018-09-25T04:35:26.775Z,0.00
2018-09-25T04:36:26.697Z,0.00
2018-09-25T04:37:26.615Z,0.00
2018-09-25T04:38:26.536Z,0.00
2018-09-25T04:39:26.458Z,0.00
2018-09-25T04:40:26.379Z,0.00
2018-09-25T04:41:26.299Z,0.00
2018-09-25T04:42:26.215Z,0.00
2018-09-25T04:43:26.134Z,0.00
2018-09-25T04:44:26.057Z,0.00
2018-09-25T04:45:25.976Z,0.00
2018-09-25T04:46:25.893Z,0.00
2018-09-25T04:47:25.815Z,0.00
2018-09-25T04:48:25.733Z,0.00
2018-09-25T04:49:25.656Z,0.00
2018-09-25T04:50:25.574Z,0.00
2018-09-25T04:51:25.492Z,0.00
2018-09-25T04:52:25.416Z,0.00
2018-09-25T04:53:25.337Z,0.00
2018-09-25T04:54:25.251Z,0.00
2018-09-25T04:55:25.173Z,4.00
2018-09-25T04:56:25.091Z,0.00
2018-09-25T04:57:25.014Z,0.00
2018-09-25T04:58:24.928Z,4.00
2018-09-25T04:59:24.852Z,0.00
2018-09-25T05:00:24.772Z,4.00
2018-09-25T05:01:24.692Z,4.00
2018-09-25T05:02:24.613Z,8.00
2018-09-25T05:03:24.529Z,8.00
2018-09-25T05:04:24.451Z,8.00
2018-09-25T05:05:24.371Z,12.00
2018-09-25T05:06:24.294Z,12.00
2018-09-25T05:07:24.208Z,12.00
2018-09-25T05:08:24.130Z,16.00
2018-09-25T05:09:24.064Z,16.00
2018-09-25T05:10:23.974Z,24.00
2018-09-25T05:11:23.889Z,28.00
2018-09-25T05:12:23.807Z,32.00
2018-09-25T05:13:23.727Z,36.00
2018-09-25T05:14:23.653Z,40.00
2018-09-25T05:15:23.573Z,48.00
2018-09-25T05:16:23.488Z,52.00
2018-09-25T05:17:23.408Z,60.00
2018-09-25T05:18:23.327Z,64.00
2018-09-25T05:19:23.251Z,72.00
2018-09-25T05:20:23.164Z,84.00
2018-09-25T05:21:23.088Z,92.00
2018-09-25T05:22:23.007Z,100.00
2018-09-25T05:23:22.955Z,112.00
2018-09-25T05:24:22.847Z,120.00
2018-09-25T05:25:22.765Z,132.00
2018-09-25T05:26:22.686Z,140.00
2018-09-25T05:27:22.602Z,156.00
2018-09-25T05:28:22.523Z,164.00
2018-09-25T05:29:22.442Z,180.00
2018-09-25T05:30:22.364Z,188.00
2018-09-25T05:31:22.282Z,204.00
2018-09-25T05:32:22.204Z,216.00
2018-09-25T05:33:22.117Z,228.00
2018-09-25T05:34:22.041Z,244.00
2018-09-25T05:35:21.961Z,256.00
2018-09-25T05:36:21.894Z,272.00
2018-09-25T05:37:21.801Z,284.00
2018-09-25T05:38:21.742Z,296.00
2018-09-25T05:39:21.675Z,316.00
2018-09-25T05:40:21.558Z,328.00
2018-09-25T05:41:21.477Z,344.00
2018-09-25T05:42:21.399Z,356.00
2018-09-25T05:43:21.314Z,376.00
2018-09-25T05:44:21.236Z,388.00
2018-09-25T05:45:21.156Z,404.00
2018-09-25T05:46:21.083Z,420.00
2018-09-25T05:47:20.993Z,436.00
2018-09-25T05:48:20.984Z,452.00
2018-09-25T05:49:20.831Z,468.00
2018-09-25T05:50:20.752Z,484.00
2018-09-25T05:51:20.676Z,496.00
2018-09-25T05:52:20.592Z,512.00
2018-09-25T05:53:20.510Z,528.00
2018-09-25T05:54:20.433Z,540.00
2018-09-25T05:55:20.349Z,552.00
2018-09-25T05:56:20.275Z,564.00
2018-09-25T05:57:20.191Z,580.00
2018-09-25T05:58:20.113Z,592.00
2018-09-25T05:59:20.035Z,600.00
2018-09-25T06:00:19.951Z,612.00
2018-09-25T06:01:19.869Z,632.00
2018-09-25T06:02:19.790Z,656.00
2018-09-25T06:03:19.709Z,672.00
2018-09-25T06:04:19.626Z,684.00
2018-09-25T06:05:19.584Z,688.00
2018-09-25T06:06:19.467Z,700.00
2018-09-25T06:07:19.383Z,720.00
2018-09-25T06:08:19.308Z,772.00
2018-09-25T06:09:19.295Z,784.00
2018-09-25T06:10:19.144Z,804.00
2018-09-25T06:11:19.064Z,812.00
2018-09-25T06:12:18.985Z,816.00
2018-09-25T06:13:18.902Z,824.00
2018-09-25T06:14:18.823Z,880.00
2018-09-25T06:15:18.741Z,888.00
2018-09-25T06:16:18.662Z,940.00
2018-09-25T06:17:18.582Z,912.00
2018-09-25T06:18:18.507Z,944.00
2018-09-25T06:19:18.421Z,1016.00
2018-09-25T06:20:18.337Z,968.00
2018-09-25T06:21:18.270Z,1008.00
2018-09-25T06:22:18.183Z,1036.00
2018-09-25T06:23:18.103Z,1140.00
2018-09-25T06:24:18.019Z,1084.00
2018-09-25T06:25:17.938Z,984.00
2018-09-25T06:26:17.860Z,992.00
2018-09-25T06:27:17.777Z,1012.00
2018-09-25T06:28:17.696Z,1104.00
2018-09-25T06:29:17.615Z,1004.00
2018-09-25T06:30:17.538Z,1080.00
2018-09-25T06:31:17.456Z,1024.00
2018-09-25T06:32:17.375Z,1152.00
2018-09-25T06:33:17.296Z,1124.00
2018-09-25T06:34:17.217Z,1116.00
2018-09-25T06:35:17.133Z,1168.00
2018-09-25T06:36:17.059Z,1172.00
2018-09-25T06:37:17.021Z,1124.00
2018-09-25T06:38:16.896Z,1212.00
2018-09-25T06:39:16.813Z,1220.00
2018-09-25T06:40:16.738Z,1380.00
2018-09-25T06:41:16.654Z,1244.00
2018-09-25T06:42:16.574Z,1304.00
2018-09-25T06:43:16.491Z,1312.00
2018-09-25T06:44:16.417Z,1232.00
2018-09-25T06:45:16.333Z,1196.00
2018-09-25T06:46:16.266Z,1276.00
2018-09-25T06:47:16.233Z,1352.00
2018-09-25T06:48:16.094Z,1476.00
2018-09-25T06:49:16.013Z,1520.00
2018-09-25T06:50:15.932Z,1720.00
2018-09-25T06:51:15.850Z,1472.00
2018-09-25T06:52:15.776Z,1628.00
2018-09-25T06:53:15.691Z,1820.00
2018-09-25T06:54:15.613Z,1680.00
2018-09-25T06:55:15.558Z,1704.00
2018-09-25T06:56:15.452Z,1700.00
2018-09-25T06:57:15.372Z,1400.00
2018-09-25T06:58:15.292Z,1692.00
2018-09-25T06:59:15.210Z,1312.00
2018-09-25T07:00:15.132Z,1728.00
2018-09-25T07:01:15.051Z,1524.00
2018-09-25T07:02:14.975Z,1488.00
2018-09-25T07:03:14.891Z,1584.00
2018-09-25T07:04:14.813Z,1580.00
2018-09-25T07:05:14.733Z,1428.00
2018-09-25T07:06:14.651Z,1644.00
2018-09-25T07:07:14.571Z,1468.00
2018-09-25T07:08:14.495Z,1624.00
2018-09-25T07:09:14.413Z,1596.00
2018-09-25T07:10:14.507Z,1712.00
2018-09-25T07:11:14.251Z,1552.00
2018-09-25T07:12:14.173Z,1424.00
2018-09-25T07:13:14.093Z,1412.00
2018-09-25T07:14:14.017Z,1380.00
2018-09-25T07:15:13.935Z,1352.00
2018-09-25T07:16:13.855Z,1416.00
2018-09-25T07:17:13.778Z,1396.00
2018-09-25T07:18:13.695Z,1356.00
2018-09-25T07:19:13.614Z,1408.00
2018-09-25T07:20:13.539Z,1380.00
2018-09-25T07:21:13.455Z,1364.00
2018-09-25T07:22:13.378Z,1352.00
2018-09-25T07:23:13.295Z,1352.00
2018-09-25T07:24:13.216Z,1352.00
2018-09-25T07:25:13.224Z,1348.00
2018-09-25T07:26:13.060Z,1356.00
2018-09-25T07:27:12.984Z,1364.00
2018-09-25T07:28:12.900Z,1372.00
2018-09-25T07:29:12.821Z,1380.00
2018-09-25T07:30:12.742Z,1372.00
2018-09-25T07:31:12.657Z,1384.00
2018-09-25T07:32:12.581Z,1392.00
2018-09-25T07:33:12.502Z,1412.00
2018-09-25T07:34:12.423Z,1408.00
2018-09-25T07:35:12.342Z,1404.00
2018-09-25T07:36:12.270Z,1400.00
2018-09-25T07:37:12.186Z,1404.00
2018-09-25T07:38:12.102Z,1400.00
2018-09-25T07:39:12.025Z,1412.00
2018-09-25T07:40:11.950Z,1412.00
2018-09-25T07:41:11.866Z,1412.00
2018-09-25T07:42:11.787Z,1420.00
2018-09-25T07:43:11.722Z,1420.00
2018-09-25T07:44:11.625Z,1424.00
2018-09-25T07:45:11.550Z,1432.00
2018-09-25T07:46:11.468Z,1428.00
2018-09-25T07:47:11.389Z,1432.00
2018-09-25T07:48:11.366Z,1432.00
2018-09-25T07:49:11.239Z,1448.00
2018-09-25T07:50:11.150Z,1444.00
2018-09-25T07:51:11.069Z,1436.00
2018-09-25T07:52:10.995Z,1440.00
2018-09-25T07:53:10.913Z,1444.00
2018-09-25T07:54:10.853Z,1448.00
2018-09-25T07:55:10.756Z,1444.00
2018-09-25T07:56:10.673Z,1448.00
2018-09-25T07:57:10.594Z,1456.00
2018-09-25T07:58:10.520Z,1456.00
2018-09-25T07:59:10.444Z,1460.00
2018-09-25T08:00:10.361Z,1484.00
2018-09-25T08:01:10.286Z,1524.00
2018-09-25T08:02:10.203Z,1776.00
2018-09-25T08:03:10.163Z,2092.00
2018-09-25T08:04:10.047Z,2064.00
2018-09-25T08:05:09.969Z,1840.00
2018-09-25T08:06:09.890Z,1600.00
2018-09-25T08:07:09.809Z,1536.00
2018-09-25T08:08:09.736Z,1540.00
2018-09-25T08:09:09.686Z,1676.00
2018-09-25T08:10:09.575Z,1580.00
2018-09-25T08:11:09.495Z,1612.00
2018-09-25T08:12:09.418Z,1880.00
2018-09-25T08:13:09.339Z,1736.00
2018-09-25T08:14:09.261Z,1588.00
2018-09-25T08:15:09.181Z,1540.00
2018-09-25T08:16:09.108Z,1540.00
2018-09-25T08:17:09.027Z,1536.00
2018-09-25T08:18:08.950Z,1540.00
2018-09-25T08:19:08.868Z,1548.00
2018-09-25T08:20:08.789Z,1568.00
2018-09-25T08:21:08.712Z,1684.00
2018-09-25T08:22:08.640Z,1644.00
2018-09-25T08:23:08.559Z,1844.00
2018-09-25T08:24:08.477Z,1992.00
2018-09-25T08:25:08.403Z,1692.00
2018-09-25T08:26:08.323Z,1660.00
2018-09-25T08:27:08.245Z,1660.00
2018-09-25T08:28:08.174Z,1708.00
2018-09-25T08:29:08.090Z,1748.00
2018-09-25T08:30:08.011Z,1764.00
2018-09-25T08:31:07.944Z,1720.00
2018-09-25T08:32:07.853Z,1880.00
2018-09-25T08:33:07.786Z,1912.00
2018-09-25T08:34:07.699Z,1824.00
2018-09-25T08:35:07.625Z,1736.00
2018-09-25T08:36:07.544Z,1724.00
2018-09-25T08:37:07.470Z,1736.00
2018-09-25T08:38:07.389Z,1776.00
2018-09-25T08:39:07.370Z,1868.00
2018-09-25T08:40:07.234Z,1936.00
2018-09-25T08:41:07.159Z,2020.00
2018-09-25T08:42:07.082Z,2084.00
2018-09-25T08:43:07.000Z,2184.00
2018-09-25T08:44:06.924Z,2244.00
2018-09-25T08:45:06.849Z,2948.00
2018-09-25T08:46:06.772Z,3824.00
2018-09-25T08:47:06.693Z,3588.00
2018-09-25T08:48:06.615Z,3488.00
2018-09-25T08:49:06.541Z,3968.00
2018-09-25T08:50:06.464Z,4556.00
2018-09-25T08:51:06.386Z,5232.00
2018-09-25T08:52:06.311Z,5984.00
2018-09-25T08:53:06.236Z,6756.00
2018-09-25T08:54:06.157Z,6812.00
2018-09-25T08:55:06.083Z,6944.00
2018-09-25T08:56:06.006Z,7564.00
2018-09-25T08:57:05.926Z,8172.00
2018-09-25T08:58:05.852Z,8080.00
2018-09-25T08:59:05.777Z,8300.00
2018-09-25T09:00:05.698Z,7892.00
2018-09-25T09:01:05.686Z,7448.00
2018-09-25T09:02:05.547Z,7400.00
2018-09-25T09:03:05.470Z,7344.00
2018-09-25T09:04:05.395Z,6164.00
2018-09-25T09:05:05.320Z,4952.00
2018-09-25T09:06:05.245Z,4376.00
2018-09-25T09:07:05.169Z,4192.00
2018-09-25T09:08:05.096Z,3712.00
2018-09-25T09:09:05.019Z,3580.00
2018-09-25T09:10:04.948Z,3496.00
2018-09-25T09:11:04.869Z,3424.00
2018-09-25T09:12:04.796Z,3748.00
2018-09-25T09:13:04.724Z,4304.00
2018-09-25T09:14:04.683Z,4932.00
2018-09-25T09:15:04.571Z,5432.00
2018-09-25T09:16:04.496Z,5476.00
2018-09-25T09:17:04.421Z,5684.00
2018-09-25T09:18:04.350Z,5740.00
2018-09-25T09:19:04.281Z,5376.00
2018-09-25T09:20:04.238Z,4444.00
2018-09-25T09:21:04.133Z,4924.00
2018-09-25T09:22:04.051Z,5240.00
2018-09-25T09:23:03.974Z,4808.00
2018-09-25T09:24:03.903Z,4712.00
2018-09-25T09:25:03.887Z,5012.00
2018-09-25T09:26:03.757Z,5676.00
2018-09-25T09:27:03.683Z,6012.00
2018-09-25T09:28:03.608Z,6408.00
2018-09-25T09:29:03.535Z,6596.00
2018-09-25T09:30:03.469Z,6752.00
2018-09-25T09:31:03.391Z,6812.00
2018-09-25T09:32:03.319Z,6960.00
2018-09-25T09:33:03.240Z,7016.00
2018-09-25T09:34:03.172Z,7040.00
2018-09-25T09:35:03.096Z,7068.00
2018-09-25T09:36:03.023Z,7124.00
2018-09-25T09:37:02.949Z,7184.00
2018-09-25T09:38:02.879Z,7216.00
2018-09-25T09:39:02.800Z,7216.00
2018-09-25T09:40:02.731Z,7188.00
2018-09-25T09:41:02.698Z,7196.00
2018-09-25T09:42:02.753Z,7180.00
2018-09-25T09:43:02.513Z,7212.00
2018-09-25T09:44:02.441Z,7232.00
2018-09-25T09:45:02.369Z,7196.00
2018-09-25T09:46:02.295Z,6992.00
2018-09-25T09:47:02.225Z,6896.00
2018-09-25T09:48:02.150Z,6616.00
2018-09-25T09:49:02.079Z,6036.00
2018-09-25T09:50:02.006Z,5208.00
2018-09-25T09:51:01.929Z,4732.00
2018-09-25T09:52:01.864Z,4184.00
2018-09-25T09:53:01.789Z,3764.00
2018-09-25T09:54:01.719Z,3596.00
2018-09-25T09:55:01.644Z,3052.00
2018-09-25T09:56:01.572Z,2896.00
2018-09-25T09:57:01.498Z,3036.00
2018-09-25T09:58:01.423Z,3160.00
2018-09-25T09:59:01.361Z,2912.00
2018-09-25T10:00:01.282Z,2732.00
2018-09-25T10:01:01.212Z,2660.00
2018-09-25T10:02:01.139Z,2620.00
2018-09-25T10:03:01.062Z,2628.00
2018-09-25T10:04:00.994Z,2676.00
2018-09-25T10:05:00.927Z,2904.00
2018-09-25T10:06:00.850Z,3192.00
2018-09-25T10:07:00.799Z,3504.00
2018-09-25T10:08:00.712Z,3740.00
2018-09-25T10:09:00.632Z,4324.00
2018-09-25T10:10:00.559Z,4220.00
2018-09-25T10:11:00.489Z,2936.00
2018-09-25T10:12:00.417Z,2304.00
2018-09-25T10:13:00.343Z,2132.00
2018-09-25T10:14:00.273Z,2024.00
2018-09-25T10:15:00.199Z,2036.00
2018-09-25T10:16:00.127Z,2016.00
2018-09-25T10:17:00.054Z,4180.00
2018-09-25T10:17:59.987Z,5236.00
2018-09-25T10:18:59.954Z,17376.00
2018-09-25T10:19:59.837Z,2112.00
2018-09-25T10:20:59.764Z,2240.00
2018-09-25T10:21:59.696Z,1932.00
2018-09-25T10:22:59.644Z,1916.00
2018-09-25T10:23:59.547Z,2068.00
2018-09-25T10:24:59.481Z,2164.00
2018-09-25T10:25:59.407Z,1912.00
2018-09-25T10:26:59.328Z,1808.00
2018-09-25T10:27:59.259Z,1828.00
2018-09-25T10:28:59.190Z,1824.00
2018-09-25T10:29:59.116Z,1800.00
2018-09-25T10:30:59.040Z,1864.00
2018-09-25T10:31:58.966Z,2108.00
2018-09-25T10:32:58.894Z,1776.00
2018-09-25T10:33:58.827Z,1784.00
2018-09-25T10:34:58.747Z,1776.00
2018-09-25T10:35:58.673Z,1768.00
2018-09-25T10:36:58.601Z,1764.00
2018-09-25T10:37:58.532Z,1744.00
2018-09-25T10:38:58.456Z,1728.00
2018-09-25T10:39:58.381Z,1748.00
2018-09-25T10:40:58.328Z,1776.00
2018-09-25T10:41:58.236Z,1792.00
2018-09-25T10:42:58.167Z,1816.00
2018-09-25T10:43:58.088Z,1852.00
2018-09-25T10:44:58.015Z,1900.00
2018-09-25T10:45:57.945Z,1912.00
2018-09-25T10:46:57.872Z,1916.00
2018-09-25T10:47:57.795Z,1876.00
2018-09-25T10:48:57.721Z,1836.00
2018-09-25T10:49:57.658Z,1804.00
2018-09-25T10:50:57.577Z,1812.00
2018-09-25T10:51:57.501Z,1816.00
2018-09-25T10:52:57.427Z,1828.00
2018-09-25T10:53:57.360Z,1828.00
2018-09-25T10:54:57.284Z,1856.00
2018-09-25T10:55:57.318Z,2004.00
2018-09-25T10:56:57.138Z,2256.00
2018-09-25T10:57:57.066Z,2456.00
2018-09-25T10:58:56.988Z,2256.00
2018-09-25T10:59:56.914Z,2816.00
2018-09-25T11:00:56.846Z,2724.00
2018-09-25T11:01:56.770Z,2896.00
2018-09-25T11:02:56.828Z,3436.00
2018-09-25T11:03:56.623Z,3900.00
2018-09-25T11:04:56.550Z,4280.00
2018-09-25T11:05:56.476Z,4488.00
2018-09-25T11:06:56.407Z,4928.00
2018-09-25T11:07:56.330Z,5504.00
2018-09-25T11:08:56.256Z,5176.00
2018-09-25T11:09:56.232Z,6248.00
2018-09-25T11:10:56.111Z,7268.00
2018-09-25T11:11:56.041Z,7968.00
2018-09-25T11:12:55.967Z,5616.00
2018-09-25T11:13:55.892Z,5020.00
2018-09-25T11:14:55.827Z,5100.00
2018-09-25T11:15:55.750Z,4656.00
2018-09-25T11:16:55.673Z,4116.00
2018-09-25T11:17:55.600Z,3940.00
2018-09-25T11:18:55.527Z,4220.00
2018-09-25T11:19:55.455Z,4688.00
2018-09-25T11:20:55.384Z,5284.00
2018-09-25T11:21:55.312Z,5696.00
2018-09-25T11:22:55.240Z,5824.00
2018-09-25T11:23:55.167Z,6568.00
2018-09-25T11:24:55.091Z,7564.00
2018-09-25T11:25:55.021Z,7220.00
2018-09-25T11:26:54.949Z,6800.00
2018-09-25T11:27:54.874Z,6772.00
2018-09-25T11:28:54.804Z,7608.00
2018-09-25T11:29:54.732Z,8236.00
2018-09-25T11:30:54.658Z,14380.00
2018-09-25T11:31:54.586Z,11344.00
2018-09-25T11:32:54.519Z,10560.00
2018-09-25T11:33:54.443Z,9040.00
2018-09-25T11:34:54.377Z,8112.00
2018-09-25T11:35:54.297Z,8060.00
2018-09-25T11:36:54.226Z,7232.00
2018-09-25T11:37:54.153Z,7076.00
2018-09-25T11:38:54.081Z,7036.00
2018-09-25T11:39:54.009Z,6036.00
2018-09-25T11:40:53.962Z,5896.00
2018-09-25T11:41:53.872Z,5836.00
2018-09-25T11:42:53.793Z,5568.00
2018-09-25T11:43:53.721Z,5300.00
2018-09-25T11:44:53.650Z,5048.00
2018-09-25T11:45:53.629Z,5040.00
2018-09-25T11:46:53.590Z,4840.00
2018-09-25T11:47:53.439Z,4208.00
2018-09-25T11:48:53.370Z,3756.00
2018-09-25T11:49:53.302Z,3600.00
2018-09-25T11:50:53.220Z,3428.00
2018-09-25T11:51:53.149Z,3320.00
2018-09-25T11:52:53.104Z,3372.00
2018-09-25T11:53:53.007Z,3424.00
2018-09-25T11:54:52.939Z,3468.00
2018-09-25T11:55:52.868Z,3748.00
2018-09-25T11:56:52.791Z,4232.00
2018-09-25T11:57:52.718Z,4612.00
2018-09-25T11:58:52.648Z,4412.00
2018-09-25T11:59:52.575Z,4516.00
2018-09-25T12:00:52.505Z,4580.00
2018-09-25T12:01:52.437Z,4476.00
2018-09-25T12:02:52.360Z,4456.00
2018-09-25T12:03:52.289Z,4396.00
2018-09-25T12:04:52.214Z,4288.00
2018-09-25T12:05:52.146Z,4216.00
2018-09-25T12:06:52.071Z,3728.00
2018-09-25T12:07:52.002Z,3240.00
2018-09-25T12:08:51.931Z,3140.00
2018-09-25T12:09:51.853Z,2992.00
2018-09-25T12:10:51.782Z,2800.00
2018-09-25T12:11:51.709Z,2704.00
2018-09-25T12:12:51.639Z,2628.00
2018-09-25T12:13:51.599Z,2488.00
2018-09-25T12:14:51.491Z,2500.00
2018-09-25T12:15:51.422Z,2644.00
2018-09-25T12:16:51.349Z,2524.00
2018-09-25T12:17:51.276Z,2424.00
2018-09-25T12:18:51.202Z,2360.00
2018-09-25T12:19:51.150Z,2312.00
2018-09-25T12:20:51.058Z,2316.00
2018-09-25T12:21:50.987Z,2340.00
2018-09-25T12:22:50.910Z,2412.00
2018-09-25T12:23:50.842Z,2352.00
2018-09-25T12:24:50.768Z,2320.00
2018-09-25T12:25:50.695Z,2316.00
2018-09-25T12:26:50.620Z,2352.00
2018-09-25T12:27:50.548Z,2368.00
2018-09-25T12:28:50.476Z,2468.00
2018-09-25T12:29:50.401Z,2660.00
2018-09-25T12:30:50.330Z,3000.00
2018-09-25T12:31:50.256Z,3172.00
2018-09-25T12:32:50.190Z,3316.00
2018-09-25T12:33:50.118Z,3472.00
2018-09-25T12:34:50.042Z,3524.00
2018-09-25T12:35:49.962Z,3488.00